createdAt,value
2019-06-20T00:02:06.969Z,19.83
2019-06-20T00:05:03.544Z,19.72
2019-06-20T00:08:01.213Z,19.74
2019-06-20T00:10:47.839Z,19.78
2019-06-20T00:13:46.752Z,19.61
2019-06-20T00:16:59.409Z,19.48
2019-06-20T00:20:09.036Z,19.41
2019-06-20T00:23:10.260Z,19.43
2019-06-20T00:26:10.451Z,19.57
2019-06-20T00:29:18.819Z,19.64
2019-06-20T00:32:11.351Z,19.58
2019-06-20T00:35:18.118Z,19.57
2019-06-20T00:38:19.302Z,19.57
2019-06-20T00:40:56.202Z,19.44
2019-06-20T00:44:01.664Z,19.38
2019-06-20T00:46:59.800Z,19.29
2019-06-20T00:50:10.352Z,19.38
2019-06-20T00:53:15.556Z,19.21
2019-06-20T00:56:19.918Z,19.16
2019-06-20T00:59:15.800Z,19.11
2019-06-20T01:02:22.805Z,19.11
2019-06-20T01:05:29.170Z,19.08
2019-06-20T01:08:34.445Z,19.19
2019-06-20T01:11:50.283Z,19.15
2019-06-20T01:14:58.885Z,19.04
2019-06-20T01:18:08.077Z,18.97
2019-06-20T01:21:07.176Z,18.82
2019-06-20T01:23:54.748Z,18.72
2019-06-20T01:27:01.667Z,18.67
2019-06-20T01:30:15.865Z,18.56
2019-06-20T01:33:13.158Z,18.24
2019-06-20T01:36:01.630Z,18.19
2019-06-20T01:38:57.280Z,18.18
2019-06-20T01:41:59.265Z,18.04
2019-06-20T01:45:14.519Z,17.87
2019-06-20T01:48:22.491Z,17.83
2019-06-20T01:51:25.633Z,17.76
2019-06-20T01:54:22.851Z,17.71
2019-06-20T01:56:57.870Z,17.68
2019-06-20T02:00:03.362Z,17.69
2019-06-20T02:03:07.071Z,17.67
2019-06-20T02:06:06.083Z,17.53
2019-06-20T02:09:14.554Z,17.51
2019-06-20T02:12:14.978Z,17.39
2019-06-20T02:15:12.657Z,17.36
2019-06-20T02:18:04.298Z,17.39
2019-06-20T02:21:19.314Z,17.30
2019-06-20T02:24:30.152Z,17.27
2019-06-20T02:27:33.225Z,17.13
2019-06-20T02:30:41.995Z,17.10
2019-06-20T02:33:49.391Z,17.06
2019-06-20T02:36:55.557Z,16.95
2019-06-20T02:41:06.139Z,16.99
2019-06-20T02:44:03.566Z,16.91
2019-06-20T02:47:02.861Z,16.79
2019-06-20T02:50:14.225Z,16.72
2019-06-20T02:53:11.412Z,16.68
2019-06-20T02:56:04.551Z,16.68
2019-06-20T02:58:59.274Z,16.60
2019-06-20T03:02:00.243Z,16.53
2019-06-20T03:05:10.829Z,16.48
2019-06-20T03:08:07.084Z,16.44
2019-06-20T03:11:10.657Z,16.48
2019-06-20T03:14:17.388Z,16.45
2019-06-20T03:17:21.948Z,16.39
2019-06-20T03:20:21.768Z,16.47
2019-06-20T03:23:18.408Z,16.53
2019-06-20T03:26:09.568Z,16.56
2019-06-20T03:29:10.936Z,16.58
2019-06-20T03:32:14.721Z,16.55
2019-06-20T03:35:30.015Z,16.55
2019-06-20T03:38:21.939Z,16.57
2019-06-20T03:41:19.883Z,16.57
2019-06-20T03:44:26.633Z,16.53
2019-06-20T03:47:35.491Z,16.43
2019-06-20T03:50:39.094Z,16.40
2019-06-20T03:53:32.745Z,16.52
2019-06-20T03:56:26.278Z,16.52
2019-06-20T03:59:25.962Z,16.44
2019-06-20T04:02:31.751Z,16.53
2019-06-20T04:05:46.837Z,16.42
2019-06-20T04:08:39.421Z,16.39
2019-06-20T04:11:52.884Z,16.50
2019-06-20T04:15:18.989Z,16.77
2019-06-20T04:18:12.279Z,16.65
2019-06-20T04:21:10.703Z,16.53
2019-06-20T04:23:56.782Z,16.53
2019-06-20T04:26:59.457Z,16.54
2019-06-20T04:30:07.496Z,16.41
2019-06-20T04:33:17.380Z,16.54
2019-06-20T04:36:19.333Z,16.63
2019-06-20T04:39:18.662Z,16.58
2019-06-20T04:42:19.375Z,16.87
2019-06-20T04:45:35.131Z,17.02
2019-06-20T04:48:25.558Z,17.02
2019-06-20T04:51:39.546Z,17.10
2019-06-20T04:54:45.917Z,17.29
2019-06-20T04:57:58.499Z,17.60
2019-06-20T05:00:59.626Z,17.80
2019-06-20T05:03:56.400Z,17.68
2019-06-20T05:07:04.352Z,17.61
2019-06-20T05:10:14.129Z,17.55
2019-06-20T05:13:16.839Z,17.65
2019-06-20T05:16:25.338Z,17.68
2019-06-20T05:19:24.491Z,17.70
2019-06-20T05:22:32.820Z,17.67
2019-06-20T05:25:21.951Z,17.77
2019-06-20T05:28:26.146Z,17.69
2019-06-20T05:31:28.706Z,17.56
2019-06-20T05:34:21.062Z,17.53
2019-06-20T05:37:26.137Z,17.42
2019-06-20T05:40:32.036Z,17.40
2019-06-20T05:43:47.428Z,17.38
2019-06-20T05:46:39.176Z,17.61
2019-06-20T05:49:35.706Z,17.66
2019-06-20T05:52:43.125Z,17.86
2019-06-20T05:55:59.496Z,18.05
2019-06-20T05:59:03.488Z,17.98
2019-06-20T06:02:10.097Z,18.30
2019-06-20T06:05:05.885Z,18.89
2019-06-20T06:08:16.353Z,19.88
2019-06-20T06:11:19.218Z,20.21
2019-06-20T06:14:19.116Z,19.55
2019-06-20T06:17:27.003Z,19.54
2019-06-20T06:20:37.656Z,19.31
2019-06-20T06:23:50.136Z,19.25
2019-06-20T06:27:01.688Z,19.31
2019-06-20T06:30:18.436Z,19.32
2019-06-20T06:33:29.996Z,19.38
2019-06-20T06:36:22.115Z,19.66
2019-06-20T06:39:20.619Z,19.69
2019-06-20T06:42:29.440Z,19.91
2019-06-20T06:45:35.407Z,20.32
2019-06-20T06:48:44.132Z,20.17
2019-06-20T06:51:53.946Z,20.67
2019-06-20T06:54:49.430Z,20.71
2019-06-20T06:57:51.908Z,20.97
2019-06-20T07:00:53.990Z,20.70
2019-06-20T07:03:54.600Z,20.94
2019-06-20T07:06:59.255Z,20.43
2019-06-20T07:09:52.119Z,20.85
2019-06-20T07:12:50.810Z,21.70
2019-06-20T07:15:56.667Z,21.02
2019-06-20T07:18:51.866Z,20.78
2019-06-20T07:21:52.388Z,20.82
2019-06-20T07:24:48.242Z,21.28
2019-06-20T07:27:58.335Z,22.31
2019-06-20T07:31:11.819Z,23.64
2019-06-20T07:34:19.561Z,22.61
2019-06-20T07:37:26.513Z,23.79
2019-06-20T07:40:36.778Z,25.35
2019-06-20T07:43:17.446Z,24.34
2019-06-20T07:46:02.019Z,23.93
2019-06-20T07:48:44.903Z,24.33
2019-06-20T07:51:53.429Z,24.75
2019-06-20T07:55:01.349Z,25.30
2019-06-20T07:58:16.892Z,24.27
2019-06-20T08:01:19.398Z,24.19
2019-06-20T08:04:17.435Z,23.24
2019-06-20T08:07:21.944Z,24.11
2019-06-20T08:10:17.527Z,24.99
2019-06-20T08:13:27.715Z,29.19
2019-06-20T08:16:33.387Z,28.00
2019-06-20T08:19:39.787Z,28.95
2019-06-20T08:22:42.982Z,26.76
2019-06-20T08:25:49.476Z,25.46
2019-06-20T08:29:19.709Z,24.03
2019-06-20T08:32:16.834Z,24.17
2019-06-20T08:35:11.991Z,23.79
2019-06-20T08:38:21.200Z,23.03
2019-06-20T08:41:16.615Z,22.59
2019-06-20T08:44:14.311Z,23.34
2019-06-20T08:47:19.513Z,22.95
2019-06-20T08:50:13.635Z,25.14
2019-06-20T08:53:21.439Z,25.83
2019-06-20T08:56:14.937Z,24.64
2019-06-20T08:58:57.347Z,23.20
2019-06-20T09:04:47.486Z,23.89
2019-06-20T09:07:19.767Z,24.92
2019-06-20T09:09:59.832Z,26.38
2019-06-20T09:12:45.897Z,26.21
2019-06-20T09:15:24.211Z,27.48
2019-06-20T09:18:03.740Z,27.28
2019-06-20T09:20:40.587Z,25.71
2019-06-20T09:23:41.351Z,24.61
2019-06-20T09:26:45.012Z,24.20
2019-06-20T09:29:46.915Z,25.23
2019-06-20T09:32:43.157Z,24.41
2019-06-20T09:35:27.133Z,24.88
2019-06-20T09:38:15.012Z,25.92
2019-06-20T09:40:54.876Z,26.56
2019-06-20T09:43:45.856Z,26.68
2019-06-20T09:46:30.831Z,26.49
2019-06-20T09:49:13.289Z,25.83
2019-06-20T09:52:01.183Z,27.14
2019-06-20T09:54:48.482Z,27.47
2019-06-20T09:57:24.153Z,26.08
2019-06-20T10:00:11.062Z,29.03
2019-06-20T10:02:56.332Z,28.88
2019-06-20T10:05:43.336Z,28.77
2019-06-20T10:08:26.996Z,28.13
2019-06-20T10:11:12.609Z,29.41
2019-06-20T10:14:10.973Z,29.02
2019-06-20T10:17:14.919Z,31.67
2019-06-20T10:20:21.322Z,32.21
2019-06-20T10:23:27.947Z,33.37
2019-06-20T10:26:26.263Z,27.89
2019-06-20T10:29:27.403Z,29.31
2019-06-20T10:32:26.904Z,30.07
2019-06-20T10:35:26.045Z,29.80
2019-06-20T10:38:38.251Z,28.47
2019-06-20T10:41:43.570Z,28.83
2019-06-20T10:44:50.311Z,29.05
2019-06-20T10:47:50.860Z,31.24
2019-06-20T10:50:34.241Z,33.28
2019-06-20T10:53:26.048Z,31.52
2019-06-20T10:56:13.523Z,26.60
2019-06-20T10:58:46.345Z,25.33
2019-06-20T11:01:16.908Z,25.58
2019-06-20T11:03:57.727Z,25.81
2019-06-20T11:06:59.756Z,25.77
2019-06-20T11:10:08.910Z,25.72
2019-06-20T11:13:17.517Z,25.94
2019-06-20T11:16:08.326Z,26.35
2019-06-20T11:19:15.044Z,26.63
2019-06-20T11:22:19.497Z,26.48
2019-06-20T11:24:54.755Z,28.74
2019-06-20T11:27:28.347Z,31.33
2019-06-20T11:30:09.271Z,30.71
2019-06-20T11:33:15.212Z,30.48
2019-06-20T11:35:47.904Z,28.36
2019-06-20T11:38:33.309Z,27.94
2019-06-20T11:41:27.017Z,27.41
2019-06-20T11:44:01.659Z,26.92
2019-06-20T11:46:56.179Z,26.16
2019-06-20T11:49:34.533Z,25.85
2019-06-20T11:52:19.088Z,26.66
2019-06-20T11:55:15.192Z,26.87
2019-06-20T11:58:23.635Z,27.29
2019-06-20T12:01:04.159Z,26.73
2019-06-20T12:04:04.216Z,27.95
2019-06-20T12:06:57.161Z,30.45
2019-06-20T12:09:41.365Z,32.54
2019-06-20T12:12:22.670Z,33.33
2019-06-20T12:15:18.938Z,32.56
2019-06-20T12:18:06.255Z,33.11
2019-06-20T12:21:00.645Z,34.22
2019-06-20T12:24:02.625Z,34.16
2019-06-20T12:27:14.769Z,34.30
2019-06-20T12:29:49.328Z,31.32
2019-06-20T12:32:52.314Z,33.40
2019-06-20T12:37:52.523Z,28.66
2019-06-20T12:40:42.552Z,28.83
2019-06-20T12:43:50.024Z,28.82
2019-06-20T12:46:51.292Z,27.51
2019-06-20T12:50:04.435Z,24.79
2019-06-20T12:53:10.180Z,25.57
2019-06-20T12:55:53.962Z,26.37
2019-06-20T12:59:01.842Z,26.80
2019-06-20T13:02:06.912Z,27.82
2019-06-20T13:05:10.920Z,26.99
2019-06-20T13:08:24.033Z,26.50
2019-06-20T13:10:58.387Z,23.20
2019-06-20T13:13:53.968Z,20.77
2019-06-20T13:16:52.066Z,19.57
2019-06-20T13:20:07.223Z,18.24
2019-06-20T13:23:21.238Z,18.35
2019-06-20T13:26:08.553Z,18.52
2019-06-20T13:29:13.880Z,18.83
2019-06-20T13:32:12.394Z,19.41
2019-06-20T13:35:14.114Z,20.09
2019-06-20T13:37:50.057Z,21.02
2019-06-20T13:40:26.999Z,22.27
2019-06-20T13:43:05.586Z,23.84
2019-06-20T13:45:47.258Z,24.30
2019-06-20T13:48:50.423Z,24.46
2019-06-20T13:51:25.533Z,24.93
2019-06-20T13:54:20.060Z,27.43
2019-06-20T13:57:22.575Z,26.97
2019-06-20T14:00:42.891Z,26.91
2019-06-20T14:03:44.008Z,27.83
2019-06-20T14:06:50.130Z,27.71
2019-06-20T14:10:02.016Z,26.97
2019-06-20T14:13:02.059Z,25.00
2019-06-20T14:16:03.592Z,26.20
2019-06-20T14:18:59.478Z,27.66
2019-06-20T14:22:08.289Z,27.62
2019-06-20T14:25:15.419Z,27.74
2019-06-20T14:28:24.713Z,27.77
2019-06-20T14:31:29.478Z,27.56
2019-06-20T14:34:24.942Z,27.20
2019-06-20T14:37:37.838Z,26.12
2019-06-20T14:40:43.553Z,25.04
2019-06-20T14:43:51.898Z,24.03
2019-06-20T14:46:54.169Z,24.35
2019-06-20T14:50:01.735Z,23.89
2019-06-20T14:53:07.325Z,25.19
2019-06-20T14:56:22.867Z,25.19
2019-06-20T14:58:55.553Z,24.07
2019-06-20T15:01:40.853Z,23.81
2019-06-20T15:04:29.479Z,23.92
2019-06-20T15:07:18.122Z,23.28
2019-06-20T15:09:59.026Z,23.70
2019-06-20T15:12:32.946Z,23.29
2019-06-20T15:15:18.793Z,22.40
2019-06-20T15:17:58.119Z,22.25
2019-06-20T15:20:50.176Z,21.76
2019-06-20T15:23:41.825Z,21.51
2019-06-20T15:26:42.040Z,22.04
2019-06-20T15:29:39.927Z,22.30
2019-06-20T15:32:33.112Z,21.43
2019-06-20T15:35:17.620Z,21.08
2019-06-20T15:37:53.617Z,20.53
2019-06-20T15:40:45.128Z,20.26
2019-06-20T15:43:41.074Z,20.11
2019-06-20T15:46:33.406Z,20.93
2019-06-20T15:49:27.117Z,21.87
2019-06-20T15:52:25.169Z,22.55
2019-06-20T15:55:23.023Z,22.80
2019-06-20T15:57:56.027Z,22.53
2019-06-20T16:00:31.027Z,23.13
2019-06-20T16:03:16.106Z,22.86
2019-06-20T16:06:15.872Z,23.27
2019-06-20T16:08:59.409Z,23.03
2019-06-20T16:11:45.176Z,22.51
2019-06-20T16:14:30.649Z,22.44
2019-06-20T16:17:24.216Z,22.15
2019-06-20T16:20:14.029Z,22.31
2019-06-20T16:23:16.448Z,22.15
2019-06-20T16:26:08.608Z,21.84
2019-06-20T16:29:04.090Z,22.08
2019-06-20T16:31:59.635Z,21.61
2019-06-20T16:34:49.902Z,21.09
2019-06-20T16:37:42.468Z,20.89
2019-06-20T16:40:22.898Z,20.94
2019-06-20T16:43:22.706Z,20.92
2019-06-20T16:46:22.431Z,20.80
2019-06-20T16:49:12.623Z,20.57
2019-06-20T16:52:13.926Z,20.74
2019-06-20T16:55:04.675Z,20.97
2019-06-20T16:57:46.253Z,20.85
2019-06-20T17:00:32.807Z,20.65
2019-06-20T17:03:06.204Z,20.58
2019-06-20T17:05:49.023Z,21.25
2019-06-20T17:08:50.755Z,21.97
2019-06-20T17:11:39.563Z,21.69
2019-06-20T17:14:12.286Z,21.73
2019-06-20T17:16:47.894Z,21.82
2019-06-20T17:19:32.613Z,20.62
2019-06-20T17:24:29.167Z,19.34
2019-06-20T17:27:31.294Z,19.26
2019-06-20T17:30:25.690Z,19.28
2019-06-20T17:33:15.843Z,19.21
2019-06-20T17:36:16.994Z,18.99
2019-06-20T17:39:10.256Z,18.65
2019-06-20T17:42:00.815Z,18.64
2019-06-20T17:44:52.994Z,18.57
2019-06-20T17:47:42.797Z,18.50
2019-06-20T17:50:19.577Z,18.52
2019-06-20T17:53:07.754Z,18.53
2019-06-20T17:56:07.532Z,18.83
2019-06-20T17:58:57.999Z,18.94
2019-06-20T18:01:49.606Z,19.26
2019-06-20T18:04:30.812Z,19.10
2019-06-20T18:07:30.458Z,18.80
2019-06-20T18:10:30.812Z,18.81
2019-06-20T18:13:20.083Z,18.87
2019-06-20T18:16:24.521Z,18.86
2019-06-20T18:19:10.871Z,18.90
2019-06-20T18:22:03.318Z,18.85
2019-06-20T18:24:57.470Z,18.86
2019-06-20T18:27:55.630Z,18.80
2019-06-20T18:31:05.216Z,18.62
2019-06-20T18:33:55.656Z,18.57
2019-06-20T18:36:55.791Z,18.61
2019-06-20T18:39:41.008Z,18.73
2019-06-20T18:42:29.250Z,18.56
2019-06-20T18:45:25.394Z,18.70
2019-06-20T18:48:22.860Z,18.43
2019-06-20T18:51:00.291Z,18.48
2019-06-20T18:53:32.232Z,18.55
2019-06-20T18:56:04.314Z,18.50
2019-06-20T18:58:34.850Z,18.41
2019-06-20T19:01:05.484Z,18.38
2019-06-20T19:03:36.697Z,18.17
2019-06-20T19:06:08.435Z,18.13
2019-06-20T19:08:39.128Z,18.19
2019-06-20T19:11:10.088Z,18.31
2019-06-20T19:13:40.913Z,18.20
2019-06-20T19:16:12.236Z,18.29
2019-06-20T19:18:44.601Z,18.31
2019-06-20T19:21:19.584Z,18.27
2019-06-20T19:23:50.365Z,18.27
2019-06-20T19:26:21.679Z,18.26
2019-06-20T19:28:52.511Z,18.08
2019-06-20T19:31:24.165Z,17.97
2019-06-20T19:33:55.335Z,17.89
2019-06-20T19:36:26.391Z,17.76
2019-06-20T19:38:57.908Z,17.68
2019-06-20T19:41:28.525Z,17.57
2019-06-20T19:43:59.267Z,17.48
2019-06-20T19:46:33.481Z,17.55
2019-06-20T19:49:04.234Z,17.56
2019-06-20T19:51:39.969Z,17.40
2019-06-20T19:54:32.335Z,17.30
2019-06-20T19:57:11.808Z,17.38
2019-06-20T19:59:54.456Z,17.41
2019-06-20T20:02:44.958Z,17.42
2019-06-20T20:05:25.495Z,17.31
2019-06-20T20:10:48.278Z,17.30
2019-06-20T20:13:21.757Z,17.30
2019-06-20T20:15:52.901Z,17.19
2019-06-20T20:18:23.613Z,17.15
2019-06-20T20:20:55.353Z,17.13
2019-06-20T20:23:27.792Z,17.08
2019-06-20T20:25:59.364Z,16.95
2019-06-20T20:28:31.082Z,16.81
2019-06-20T20:31:05.381Z,16.62
2019-06-20T20:33:39.237Z,16.63
2019-06-20T20:36:23.941Z,16.48
2019-06-20T20:38:42.477Z,16.34
2019-06-20T20:41:17.504Z,16.37
2019-06-20T20:43:50.090Z,16.10
2019-06-20T20:46:21.597Z,15.94
2019-06-20T20:48:53.466Z,15.72
2019-06-20T20:51:24.560Z,15.38
2019-06-20T20:53:58.133Z,15.38
2019-06-20T20:56:28.979Z,15.28
2019-06-20T20:59:00.834Z,15.15
2019-06-20T21:01:35.502Z,15.15
2019-06-20T21:04:08.009Z,15.11
2019-06-20T21:06:41.449Z,15.01
2019-06-20T21:09:35.163Z,14.89
2019-06-20T21:12:05.768Z,14.81
2019-06-20T21:14:37.920Z,14.77
2019-06-20T21:17:31.754Z,14.72
2019-06-20T21:20:11.304Z,14.46
2019-06-20T21:22:53.979Z,14.51
2019-06-20T21:25:44.028Z,14.41
2019-06-20T21:28:43.903Z,14.32
2019-06-20T21:31:28.892Z,14.25
2019-06-20T21:34:23.753Z,14.22
2019-06-20T21:37:14.052Z,14.09
2019-06-20T21:40:12.349Z,14.08
2019-06-20T21:43:17.458Z,14.00
2019-06-20T21:46:07.712Z,14.04
2019-06-20T21:48:54.355Z,14.05
2019-06-20T21:51:44.734Z,13.96
2019-06-20T21:54:43.120Z,13.86
2019-06-20T21:57:49.940Z,13.75
2019-06-20T22:00:54.958Z,13.64
2019-06-20T22:03:55.693Z,13.50
2019-06-20T22:06:56.695Z,13.45
2019-06-20T22:10:05.728Z,13.39
2019-06-20T22:13:07.711Z,13.46
2019-06-20T22:15:50.780Z,13.31
2019-06-20T22:18:45.476Z,13.30
2019-06-20T22:21:48.313Z,13.29
2019-06-20T22:24:30.644Z,13.30
2019-06-20T22:27:29.799Z,13.36
2019-06-20T22:30:16.426Z,13.32
2019-06-20T22:33:26.608Z,13.29
2019-06-20T22:36:11.981Z,13.26
2019-06-20T22:39:10.199Z,13.22
2019-06-20T22:42:23.203Z,13.05
2019-06-20T22:45:30.477Z,13.10
2019-06-20T22:48:25.701Z,13.28
2019-06-20T22:51:32.333Z,13.60
2019-06-20T22:54:35.485Z,13.64
2019-06-20T22:57:40.497Z,13.62
2019-06-20T23:00:41.764Z,13.56
2019-06-20T23:03:41.119Z,13.40
2019-06-20T23:06:14.114Z,13.31
2019-06-20T23:08:47.857Z,13.16
2019-06-20T23:11:17.643Z,13.15
2019-06-20T23:14:18.931Z,12.92
2019-06-20T23:17:26.196Z,12.95
2019-06-20T23:20:23.070Z,12.88
2019-06-20T23:23:28.596Z,12.98
2019-06-20T23:26:20.633Z,12.95
2019-06-20T23:29:20.253Z,12.89
2019-06-20T23:32:26.385Z,12.86
2019-06-20T23:35:22.438Z,13.00
2019-06-20T23:38:39.363Z,12.85
2019-06-20T23:41:36.783Z,12.74
2019-06-20T23:44:46.721Z,12.64
2019-06-20T23:47:44.432Z,12.78
2019-06-20T23:50:37.614Z,12.84
2019-06-20T23:53:34.820Z,13.00
2019-06-20T23:56:28.812Z,13.13
2019-06-20T23:59:23.690Z,13.19
